Main page
METAR-TAF:

METAR-TAF

Airports :

El Tor Airport

El-Tor, Egypt

latitude: 28-14N, longitude: 032-37E, elevation: 21 m

Current weather observation

The report was made 34 minutes ago, at 17:00 UTC
Wind 10 kt from the West/Northwest
Temperature 31°C
Humidity 40%
Pressure 1007 hPa
Visibility 10 km or more
no clouds below 1500 m and no cumulonimbus

METAR: HETR 221700Z 29010KT CAVOK 31/16 Q1007

Time: 19:34 (17:34 UTC)

Forecast

The report was made 6 hours and 34 minutes ago, at 11:00 UTC
Forecast valid from 22 at 12 UTC to 23 at 18 UTC
Wind 15 kt from the West/Northwest with gusts up to 25 kt
Visibility 10 km or more
no clouds below 1500 m and no cumulonimbus

TAF: HETR 221100Z 2212/2318 30015G25KT CAVOK

Weather observations and forecasts of more than 4000 airports (METAR and TAF reports).

The available stations are represented by yellow and red dots on the map.

Hover mouse over dot to see the name of the station.

Then click to see weather observations and forecasts.

To change the map : click on the green buttons with a black cross to zoom in, on the green button with a dash to zoom out, or on the green arrows for adjacent maps.


METAR-TAF: